Create Tblcommutelog Verified Points Advance Search
| # | Trip ID | Id Commuter | Trip Date | Trip Num | Current Lat | Current Lng | Delta Distance | Current Time | Activity | Activity Confidence | Current Speed | |
|---|---|---|---|---|---|---|---|---|---|---|---|---|
| 71921 | 260106_715163_16653200_1743 | 715163 | (not set) | (not set) | 38.8071151 | -77.0451327 | 0.1516 | 2026-01-06 17:46:13 | walking | 100 | 0.54091750337515 | |
| 71922 | 260106_786124_6441454_1602 | 786124 | (not set) | (not set) | 39.407277393192 | -77.388407046654 | 45.4199 | 2026-01-06 17:46:58 | in_vehicle | 100 | 2.5391829910503 | |
| 71923 | 260106_757950_16624418_1659 | 757950 | (not set) | (not set) | 38.878525992733 | -77.271837401736 | 14.743 | 2026-01-06 17:47:05 | on_foot | 100 | 0.46939122193711 | |
| 71924 | 260106_789050_16657820_1736 | 789050 | (not set) | (not set) | 38.957048971717 | -77.004192798854 | 4.3282 | 2026-01-06 17:47:13 | in_vehicle | 100 | 11.564905630012 | |
| 71925 | 260106_783292_16651014_1602 | 783292 | (not set) | (not set) | 38.8679303 | -77.2722236 | 26.3021 | 2026-01-06 17:47:20 | in_vehicle | 100 | 7.5415522991229 | |
| 71926 | 260106_788500_16657138_1747 | 788500 | (not set) | (not set) | 38.935879703265 | -76.998355774319 | 0 | 2026-01-06 17:47:29 | on_foot | 100 | -0.44703925898772 | |
| 71927 | 260106_788500_16657138_1747 | 788500 | (not set) | (not set) | 38.935885832103 | -76.998317717712 | 0 | 2026-01-06 17:47:29 | on_foot | 100 | -0.44703925898772 | |
| 71928 | 260106_788500_16657138_1747 | 788500 | (not set) | (not set) | 38.935885832103 | -76.998317717712 | 0 | 2026-01-06 17:47:29 | still | 33 | -0.44703925898772 | |
| 71929 | 260106_786124_6441454_1602 | 786124 | (not set) | (not set) | 39.405505744262 | -77.391007514171 | 45.6109 | 2026-01-06 17:47:35 | in_vehicle | 100 | 3.9562974420414 | |
| 71930 | 260106_753795_16619971_1721 | 753795 | (not set) | (not set) | 38.933321395925 | -76.994475843457 | 4.1317 | 2026-01-06 17:47:39 | in_vehicle | 100 | 0 | |
| 71931 | 260106_788500_16657138_1747 | 788500 | (not set) | (not set) | 38.935885832103 | -76.998317717712 | 0 | 2026-01-06 17:47:48 | still | 100 | -0.44703925898772 | |
| 71932 | 260106_781265_16648940_1657 | 781265 | (not set) | (not set) | 38.986449633071 | -77.425276192854 | 13.8601 | 2026-01-06 17:47:55 | in_vehicle | 100 | 6.7637039884843 | |
| 71933 | 260106_788500_16657138_1747 | 788500 | (not set) | (not set) | 38.935882410906 | -76.998320646084 | 0 | 2026-01-06 17:48:00 | still | 100 | -0.44703925898772 | |
| 71934 | 260106_788500_16657138_1747 | 788500 | (not set) | (not set) | 38.935882410906 | -76.998320646084 | 0 | 2026-01-06 17:48:00 | still | 100 | -0.44703925898772 | |
| 71935 | 260106_781975_16654380_1656 | 781975 | (not set) | (not set) | 38.669774717491 | -77.257867448951 | 23.792 | 2026-01-06 17:48:16 | in_vehicle | 100 | 10.053912934634 | |
| 71936 | 260106_789050_16657820_1736 | 789050 | (not set) | (not set) | 38.973285095106 | -77.016493159155 | 5.6429 | 2026-01-06 17:48:26 | in_vehicle | 100 | 8.9765483204735 | |
| 71937 | 260106_788537_16657182_1646 | 788537 | (not set) | (not set) | 39.236729485338 | -76.691404952639 | 9.375 | 2026-01-06 17:48:41 | in_vehicle | 100 | 3.312560909099 | |
| 71938 | 260106_753795_16619971_1721 | 753795 | (not set) | (not set) | 38.933313856382 | -76.994522157415 | 4.1317 | 2026-01-06 17:48:53 | in_vehicle | 100 | -0.44703925898772 | |
| 71939 | 260106_788422_16659889_1737 | 788422 | (not set) | (not set) | 39.303966420989 | -76.616082583535 | 1.9733 | 2026-01-06 17:49:02 | in_vehicle | 100 | 3.5092581830536 | |
| 71940 | 260106_673172_16523828_1718 | 673172 | (not set) | (not set) | 39.02925332618 | -77.082829565293 | 4.3425 | 2026-01-06 17:48:42 | in_vehicle | 100 | 1.9177984210573 |